sensor_id;sensor_type;location;lat;lon;timestamp;pressure;altitude;pressure_sealevel;temperature;humidity
62632;BME280;48703;51.248;-0.546;2023-01-26T00:02:27;102210;;;4.29;96.91
62632;BME280;48703;51.248;-0.546;2023-01-26T00:05:29;102211;;;4.28;96.88
62632;BME280;48703;51.248;-0.546;2023-01-26T00:08:34;102209;;;4.27;96.86
62632;BME280;48703;51.248;-0.546;2023-01-26T00:11:23;102208;;;4.27;96.69
62632;BME280;48703;51.248;-0.546;2023-01-26T00:13:34;102210;;;4.27;96.71
62632;BME280;48703;51.248;-0.546;2023-01-26T00:16:36;102207;;;4.26;96.52
62632;BME280;48703;51.248;-0.546;2023-01-26T00:19:38;102200;;;4.25;96.28
62632;BME280;48703;51.248;-0.546;2023-01-26T00:22:40;102204;;;4.22;96.35
62632;BME280;48703;51.248;-0.546;2023-01-26T00:25:42;102202;;;4.18;96.48
62632;BME280;48703;51.248;-0.546;2023-01-26T00:28:43;102203;;;4.14;96.29
62632;BME280;48703;51.248;-0.546;2023-01-26T00:31:45;102203;;;4.11;96.26
62632;BME280;48703;51.248;-0.546;2023-01-26T00:34:47;102205;;;4.07;96.40
62632;BME280;48703;51.248;-0.546;2023-01-26T00:37:49;102206;;;4.04;96.30
62632;BME280;48703;51.248;-0.546;2023-01-26T00:40:51;102204;;;4.01;96.26
62632;BME280;48703;51.248;-0.546;2023-01-26T00:43:53;102206;;;3.98;96.15
62632;BME280;48703;51.248;-0.546;2023-01-26T00:46:55;102205;;;3.96;95.98
62632;BME280;48703;51.248;-0.546;2023-01-26T00:49:57;102208;;;3.94;95.79
62632;BME280;48703;51.248;-0.546;2023-01-26T00:52:59;102210;;;3.92;95.69
62632;BME280;48703;51.248;-0.546;2023-01-26T00:56:00;102208;;;3.88;95.71
62632;BME280;48703;51.248;-0.546;2023-01-26T00:59:02;102206;;;3.86;95.63
62632;BME280;48703;51.248;-0.546;2023-01-26T01:02:04;102209;;;3.82;95.46
62632;BME280;48703;51.248;-0.546;2023-01-26T01:05:06;102211;;;3.81;95.88
62632;BME280;48703;51.248;-0.546;2023-01-26T01:08:08;102209;;;3.78;95.57
62632;BME280;48703;51.248;-0.546;2023-01-26T01:11:10;102205;;;3.73;95.60
62632;BME280;48703;51.248;-0.546;2023-01-26T01:14:12;102205;;;3.69;95.60
62632;BME280;48703;51.248;-0.546;2023-01-26T01:17:14;102202;;;3.64;95.35
62632;BME280;48703;51.248;-0.546;2023-01-26T01:20:16;102206;;;3.60;95.57
62632;BME280;48703;51.248;-0.546;2023-01-26T01:23:18;102208;;;3.57;95.34
62632;BME280;48703;51.248;-0.546;2023-01-26T01:26:19;102209;;;3.54;95.50
62632;BME280;48703;51.248;-0.546;2023-01-26T01:29:21;102205;;;3.49;95.60
62632;BME280;48703;51.248;-0.546;2023-01-26T01:32:23;102214;;;3.45;95.68
62632;BME280;48703;51.248;-0.546;2023-01-26T01:35:25;102213;;;3.40;95.84
62632;BME280;48703;51.248;-0.546;2023-01-26T01:38:27;102214;;;3.35;95.71
62632;BME280;48703;51.248;-0.546;2023-01-26T01:41:29;102212;;;3.31;95.58
62632;BME280;48703;51.248;-0.546;2023-01-26T01:44:33;102212;;;3.28;95.71
62632;BME280;48703;51.248;-0.546;2023-01-26T01:47:33;102217;;;3.25;95.64
62632;BME280;48703;51.248;-0.546;2023-01-26T01:50:35;102218;;;3.21;95.74
62632;BME280;48703;51.248;-0.546;2023-01-26T01:53:38;102214;;;3.16;95.89
62632;BME280;48703;51.248;-0.546;2023-01-26T01:56:44;102218;;;3.11;95.94
62632;BME280;48703;51.248;-0.546;2023-01-26T01:59:41;102223;;;3.08;96.02
62632;BME280;48703;51.248;-0.546;2023-01-26T02:02:43;102225;;;3.04;96.08
62632;BME280;48703;51.248;-0.546;2023-01-26T02:05:47;102226;;;3.00;95.98
62632;BME280;48703;51.248;-0.546;2023-01-26T02:08:47;102225;;;2.96;96.06
62632;BME280;48703;51.248;-0.546;2023-01-26T02:11:48;102220;;;2.94;96.12
62632;BME280;48703;51.248;-0.546;2023-01-26T02:14:50;102221;;;2.92;96.10
62632;BME280;48703;51.248;-0.546;2023-01-26T02:17:52;102221;;;2.87;96.06
62632;BME280;48703;51.248;-0.546;2023-01-26T02:20:55;102217;;;2.84;96.15
62632;BME280;48703;51.248;-0.546;2023-01-26T02:23:59;102212;;;2.81;96.00
62632;BME280;48703;51.248;-0.546;2023-01-26T02:26:58;102215;;;2.77;96.05
62632;BME280;48703;51.248;-0.546;2023-01-26T02:29:59;102216;;;2.72;96.16
62632;BME280;48703;51.248;-0.546;2023-01-26T02:33:01;102221;;;2.69;96.26
62632;BME280;48703;51.248;-0.546;2023-01-26T02:36:04;102228;;;2.66;96.39
62632;BME280;48703;51.248;-0.546;2023-01-26T02:39:14;102238;;;2.66;96.37
62632;BME280;48703;51.248;-0.546;2023-01-26T02:42:07;102242;;;2.63;96.43
62632;BME280;48703;51.248;-0.546;2023-01-26T02:45:10;102244;;;2.61;96.51
62632;BME280;48703;51.248;-0.546;2023-01-26T02:48:11;102246;;;2.60;96.42
62632;BME280;48703;51.248;-0.546;2023-01-26T02:51:13;102244;;;2.57;96.37
62632;BME280;48703;51.248;-0.546;2023-01-26T02:54:15;102241;;;2.57;96.45
62632;BME280;48703;51.248;-0.546;2023-01-26T02:57:16;102241;;;2.54;96.31
62632;BME280;48703;51.248;-0.546;2023-01-26T03:00:19;102248;;;2.51;96.45
62632;BME280;48703;51.248;-0.546;2023-01-26T03:03:21;102256;;;2.49;96.23
62632;BME280;48703;51.248;-0.546;2023-01-26T03:06:22;102254;;;2.43;96.30
62632;BME280;48703;51.248;-0.546;2023-01-26T03:09:24;102254;;;2.38;96.47
62632;BME280;48703;51.248;-0.546;2023-01-26T03:12:26;102250;;;2.35;96.36
62632;BME280;48703;51.248;-0.546;2023-01-26T03:15:28;102252;;;2.33;96.40
62632;BME280;48703;51.248;-0.546;2023-01-26T03:18:30;102257;;;2.29;96.35
62632;BME280;48703;51.248;-0.546;2023-01-26T03:21:32;102258;;;2.26;96.47
62632;BME280;48703;51.248;-0.546;2023-01-26T03:24:33;102258;;;2.23;96.40
62632;BME280;48703;51.248;-0.546;2023-01-26T03:27:39;102258;;;2.18;96.17
62632;BME280;48703;51.248;-0.546;2023-01-26T03:30:37;102261;;;2.13;96.26
62632;BME280;48703;51.248;-0.546;2023-01-26T03:33:39;102257;;;2.11;96.08
62632;BME280;48703;51.248;-0.546;2023-01-26T03:36:41;102252;;;2.07;96.05
62632;BME280;48703;51.248;-0.546;2023-01-26T03:39:43;102257;;;2.02;96.00
62632;BME280;48703;51.248;-0.546;2023-01-26T03:42:45;102257;;;1.97;95.93
62632;BME280;48703;51.248;-0.546;2023-01-26T03:45:47;102265;;;1.92;95.79
62632;BME280;48703;51.248;-0.546;2023-01-26T03:48:49;102269;;;1.87;95.83
62632;BME280;48703;51.248;-0.546;2023-01-26T03:51:51;102265;;;1.83;95.93
62632;BME280;48703;51.248;-0.546;2023-01-26T03:54:52;102266;;;1.77;95.57
62632;BME280;48703;51.248;-0.546;2023-01-26T03:57:54;102270;;;1.74;95.88
62632;BME280;48703;51.248;-0.546;2023-01-26T04:00:56;102270;;;1.69;95.47
62632;BME280;48703;51.248;-0.546;2023-01-26T04:03:58;102265;;;1.65;95.68
62632;BME280;48703;51.248;-0.546;2023-01-26T04:07:00;102268;;;1.63;96.15
62632;BME280;48703;51.248;-0.546;2023-01-26T04:10:02;102273;;;1.61;96.10
62632;BME280;48703;51.248;-0.546;2023-01-26T04:13:04;102269;;;1.56;95.74
62632;BME280;48703;51.248;-0.546;2023-01-26T04:16:06;102269;;;1.54;95.86
62632;BME280;48703;51.248;-0.546;2023-01-26T04:19:08;102269;;;1.52;96.24
62632;BME280;48703;51.248;-0.546;2023-01-26T04:22:10;102269;;;1.50;96.16
62632;BME280;48703;51.248;-0.546;2023-01-26T04:25:12;102270;;;1.45;95.85
62632;BME280;48703;51.248;-0.546;2023-01-26T04:28:13;102266;;;1.41;95.77
62632;BME280;48703;51.248;-0.546;2023-01-26T04:31:15;102273;;;1.37;95.62
62632;BME280;48703;51.248;-0.546;2023-01-26T04:34:17;102274;;;1.32;95.77
62632;BME280;48703;51.248;-0.546;2023-01-26T04:37:19;102281;;;1.29;95.82
62632;BME280;48703;51.248;-0.546;2023-01-26T04:40:21;102291;;;1.25;95.60
62632;BME280;48703;51.248;-0.546;2023-01-26T04:43:23;102294;;;1.19;95.18
62632;BME280;48703;51.248;-0.546;2023-01-26T04:46:25;102296;;;1.14;95.02
62632;BME280;48703;51.248;-0.546;2023-01-26T04:49:27;102300;;;1.14;95.69
62632;BME280;48703;51.248;-0.546;2023-01-26T04:52:29;102301;;;1.16;96.27
62632;BME280;48703;51.248;-0.546;2023-01-26T04:55:30;102299;;;1.18;96.43
62632;BME280;48703;51.248;-0.546;2023-01-26T04:58:32;102300;;;1.19;96.36
62632;BME280;48703;51.248;-0.546;2023-01-26T05:01:34;102294;;;1.20;96.75
62632;BME280;48703;51.248;-0.546;2023-01-26T05:04:36;102293;;;1.25;96.87
62632;BME280;48703;51.248;-0.546;2023-01-26T05:07:38;102295;;;1.27;96.93
62632;BME280;48703;51.248;-0.546;2023-01-26T05:10:40;102298;;;1.32;97.27
62632;BME280;48703;51.248;-0.546;2023-01-26T05:13:42;102296;;;1.38;97.60
62632;BME280;48703;51.248;-0.546;2023-01-26T05:16:44;102296;;;1.42;97.63
62632;BME280;48703;51.248;-0.546;2023-01-26T05:19:46;102294;;;1.46;97.65
62632;BME280;48703;51.248;-0.546;2023-01-26T05:22:47;102292;;;1.49;97.62
62632;BME280;48703;51.248;-0.546;2023-01-26T05:25:49;102291;;;1.53;97.91
62632;BME280;48703;51.248;-0.546;2023-01-26T05:28:51;102293;;;1.56;97.75
62632;BME280;48703;51.248;-0.546;2023-01-26T05:31:53;102293;;;1.58;97.96
62632;BME280;48703;51.248;-0.546;2023-01-26T05:34:55;102295;;;1.61;97.84
62632;BME280;48703;51.248;-0.546;2023-01-26T05:37:57;102287;;;1.65;98.01
62632;BME280;48703;51.248;-0.546;2023-01-26T05:40:59;102286;;;1.69;98.15
62632;BME280;48703;51.248;-0.546;2023-01-26T05:44:01;102291;;;1.74;98.37
62632;BME280;48703;51.248;-0.546;2023-01-26T05:47:03;102286;;;1.77;98.32
62632;BME280;48703;51.248;-0.546;2023-01-26T05:50:05;102285;;;1.82;98.35
62632;BME280;48703;51.248;-0.546;2023-01-26T05:53:06;102285;;;1.85;98.36
62632;BME280;48703;51.248;-0.546;2023-01-26T05:56:08;102284;;;1.87;98.36
62632;BME280;48703;51.248;-0.546;2023-01-26T05:59:10;102291;;;1.88;98.27
62632;BME280;48703;51.248;-0.546;2023-01-26T06:02:12;102293;;;1.92;98.34
62632;BME280;48703;51.248;-0.546;2023-01-26T06:05:14;102291;;;1.97;98.51
62632;BME280;48703;51.248;-0.546;2023-01-26T06:08:16;102293;;;2.01;98.53
62632;BME280;48703;51.248;-0.546;2023-01-26T06:11:18;102295;;;2.03;98.38
62632;BME280;48703;51.248;-0.546;2023-01-26T06:14:20;102298;;;2.06;98.65
62632;BME280;48703;51.248;-0.546;2023-01-26T06:17:22;102298;;;2.09;98.67
62632;BME280;48703;51.248;-0.546;2023-01-26T06:20:24;102293;;;2.11;98.68
62632;BME280;48703;51.248;-0.546;2023-01-26T06:23:25;102299;;;2.15;98.92
62632;BME280;48703;51.248;-0.546;2023-01-26T06:26:27;102304;;;2.18;98.86
62632;BME280;48703;51.248;-0.546;2023-01-26T06:29:29;102303;;;2.21;98.72
62632;BME280;48703;51.248;-0.546;2023-01-26T06:32:31;102309;;;2.25;98.90
62632;BME280;48703;51.248;-0.546;2023-01-26T06:35:33;102316;;;2.29;98.99
62632;BME280;48703;51.248;-0.546;2023-01-26T06:38:35;102322;;;2.34;98.98
62632;BME280;48703;51.248;-0.546;2023-01-26T06:41:37;102325;;;2.37;99.01
62632;BME280;48703;51.248;-0.546;2023-01-26T06:44:39;102332;;;2.39;98.86
62632;BME280;48703;51.248;-0.546;2023-01-26T06:47:43;102335;;;2.42;99.03
62632;BME280;48703;51.248;-0.546;2023-01-26T06:50:42;102341;;;2.46;98.95
62632;BME280;48703;51.248;-0.546;2023-01-26T06:53:46;102352;;;2.49;98.89
62632;BME280;48703;51.248;-0.546;2023-01-26T06:56:46;102359;;;2.50;98.74
62632;BME280;48703;51.248;-0.546;2023-01-26T06:59:48;102358;;;2.52;98.73
62632;BME280;48703;51.248;-0.546;2023-01-26T07:02:50;102360;;;2.55;98.63
62632;BME280;48703;51.248;-0.546;2023-01-26T07:05:52;102359;;;2.57;98.62
62632;BME280;48703;51.248;-0.546;2023-01-26T07:08:54;102365;;;2.59;98.49
62632;BME280;48703;51.248;-0.546;2023-01-26T07:11:56;102367;;;2.60;98.56
62632;BME280;48703;51.248;-0.546;2023-01-26T07:14:58;102368;;;2.65;98.64
62632;BME280;48703;51.248;-0.546;2023-01-26T07:18:00;102371;;;2.66;98.47
62632;BME280;48703;51.248;-0.546;2023-01-26T07:21:02;102380;;;2.69;98.22
62632;BME280;48703;51.248;-0.546;2023-01-26T07:24:04;102381;;;2.74;97.86
62632;BME280;48703;51.248;-0.546;2023-01-26T07:27:05;102383;;;2.77;97.84
62632;BME280;48703;51.248;-0.546;2023-01-26T07:30:10;102380;;;2.78;97.65
62632;BME280;48703;51.248;-0.546;2023-01-26T07:33:09;102380;;;2.80;97.49
62632;BME280;48703;51.248;-0.546;2023-01-26T07:36:11;102378;;;2.84;97.22
62632;BME280;48703;51.248;-0.546;2023-01-26T07:39:13;102375;;;2.88;96.79
62632;BME280;48703;51.248;-0.546;2023-01-26T07:42:15;102368;;;2.90;96.97
62632;BME280;48703;51.248;-0.546;2023-01-26T07:45:17;102366;;;2.91;96.81
62632;BME280;48703;51.248;-0.546;2023-01-26T07:48:19;102378;;;2.92;96.69
62632;BME280;48703;51.248;-0.546;2023-01-26T07:51:20;102390;;;2.95;96.79
62632;BME280;48703;51.248;-0.546;2023-01-26T07:54:22;102397;;;2.95;97.01
62632;BME280;48703;51.248;-0.546;2023-01-26T07:57:24;102399;;;2.95;97.11
62632;BME280;48703;51.248;-0.546;2023-01-26T08:00:26;102406;;;2.95;97.06
62632;BME280;48703;51.248;-0.546;2023-01-26T08:03:28;102411;;;2.97;97.16
62632;BME280;48703;51.248;-0.546;2023-01-26T08:06:30;102408;;;2.98;97.16
62632;BME280;48703;51.248;-0.546;2023-01-26T08:09:32;102404;;;3.00;97.17
62632;BME280;48703;51.248;-0.546;2023-01-26T08:12:34;102398;;;3.02;96.99
62632;BME280;48703;51.248;-0.546;2023-01-26T08:15:36;102395;;;3.05;96.63
62632;BME280;48703;51.248;-0.546;2023-01-26T08:18:38;102402;;;3.07;96.76
62632;BME280;48703;51.248;-0.546;2023-01-26T08:21:39;102404;;;3.10;96.61
62632;BME280;48703;51.248;-0.546;2023-01-26T08:24:41;102407;;;3.12;96.68
62632;BME280;48703;51.248;-0.546;2023-01-26T08:27:43;102411;;;3.15;96.41
62632;BME280;48703;51.248;-0.546;2023-01-26T08:30:45;102406;;;3.17;96.42
62632;BME280;48703;51.248;-0.546;2023-01-26T08:33:47;102397;;;3.19;96.42
62632;BME280;48703;51.248;-0.546;2023-01-26T08:36:49;102394;;;3.21;96.51
62632;BME280;48703;51.248;-0.546;2023-01-26T08:39:51;102393;;;3.23;96.13
62632;BME280;48703;51.248;-0.546;2023-01-26T08:42:53;102394;;;3.26;96.21
62632;BME280;48703;51.248;-0.546;2023-01-26T08:45:55;102402;;;3.27;96.58
62632;BME280;48703;51.248;-0.546;2023-01-26T08:48:57;102402;;;3.28;96.73
62632;BME280;48703;51.248;-0.546;2023-01-26T08:51:58;102409;;;3.29;96.67
62632;BME280;48703;51.248;-0.546;2023-01-26T08:55:01;102409;;;3.31;96.21
62632;BME280;48703;51.248;-0.546;2023-01-26T08:58:02;102403;;;3.35;96.12
62632;BME280;48703;51.248;-0.546;2023-01-26T09:01:04;102405;;;3.39;95.81
62632;BME280;48703;51.248;-0.546;2023-01-26T09:04:06;102404;;;3.43;95.56
62632;BME280;48703;51.248;-0.546;2023-01-26T09:07:08;102405;;;3.46;95.22
62632;BME280;48703;51.248;-0.546;2023-01-26T09:10:10;102410;;;3.49;95.12
62632;BME280;48703;51.248;-0.546;2023-01-26T09:13:12;102416;;;3.52;94.91
62632;BME280;48703;51.248;-0.546;2023-01-26T09:16:14;102421;;;3.54;94.65
62632;BME280;48703;51.248;-0.546;2023-01-26T09:19:15;102426;;;3.57;95.02
62632;BME280;48703;51.248;-0.546;2023-01-26T09:22:17;102441;;;3.59;94.59
62632;BME280;48703;51.248;-0.546;2023-01-26T09:25:19;102437;;;3.62;94.58
62632;BME280;48703;51.248;-0.546;2023-01-26T09:28:21;102432;;;3.65;94.13
62632;BME280;48703;51.248;-0.546;2023-01-26T09:31:23;102435;;;3.70;94.46
62632;BME280;48703;51.248;-0.546;2023-01-26T09:34:25;102438;;;3.72;94.29
62632;BME280;48703;51.248;-0.546;2023-01-26T09:37:27;102436;;;3.75;93.94
62632;BME280;48703;51.248;-0.546;2023-01-26T09:40:32;102442;;;3.79;94.02
62632;BME280;48703;51.248;-0.546;2023-01-26T09:43:31;102440;;;3.82;94.20
62632;BME280;48703;51.248;-0.546;2023-01-26T09:46:36;102440;;;3.85;94.47
62632;BME280;48703;51.248;-0.546;2023-01-26T09:49:39;102435;;;3.87;94.38
62632;BME280;48703;51.248;-0.546;2023-01-26T09:52:37;102434;;;3.89;94.11
62632;BME280;48703;51.248;-0.546;2023-01-26T09:55:38;102438;;;3.92;94.57
62632;BME280;48703;51.248;-0.546;2023-01-26T09:58:40;102439;;;3.95;94.55
62632;BME280;48703;51.248;-0.546;2023-01-26T10:01:42;102443;;;3.97;94.53
62632;BME280;48703;51.248;-0.546;2023-01-26T10:04:44;102445;;;4.00;94.58
62632;BME280;48703;51.248;-0.546;2023-01-26T10:07:46;102449;;;4.02;94.27
62632;BME280;48703;51.248;-0.546;2023-01-26T10:10:49;102459;;;4.05;94.46
62632;BME280;48703;51.248;-0.546;2023-01-26T10:13:50;102457;;;4.08;94.02
62632;BME280;48703;51.248;-0.546;2023-01-26T10:16:51;102453;;;4.11;94.48
62632;BME280;48703;51.248;-0.546;2023-01-26T10:19:54;102452;;;4.14;94.41
62632;BME280;48703;51.248;-0.546;2023-01-26T10:22:56;102451;;;4.18;94.46
62632;BME280;48703;51.248;-0.546;2023-01-26T10:26:01;102451;;;4.23;94.69
62632;BME280;48703;51.248;-0.546;2023-01-26T10:28:59;102453;;;4.27;94.80
62632;BME280;48703;51.248;-0.546;2023-01-26T10:32:02;102457;;;4.33;94.86
62632;BME280;48703;51.248;-0.546;2023-01-26T10:35:03;102458;;;4.37;94.75
62632;BME280;48703;51.248;-0.546;2023-01-26T10:38:22;102460;;;4.40;94.52
62632;BME280;48703;51.248;-0.546;2023-01-26T10:41:19;102461;;;4.43;94.15
62632;BME280;48703;51.248;-0.546;2023-01-26T10:44:27;102464;;;4.47;94.44
62632;BME280;48703;51.248;-0.546;2023-01-26T10:47:13;102460;;;4.48;94.04
62632;BME280;48703;51.248;-0.546;2023-01-26T10:50:14;102463;;;4.49;94.43
62632;BME280;48703;51.248;-0.546;2023-01-26T10:53:15;102464;;;4.50;94.54
62632;BME280;48703;51.248;-0.546;2023-01-26T10:56:16;102462;;;4.50;94.06
62632;BME280;48703;51.248;-0.546;2023-01-26T10:59:22;102463;;;4.50;94.25
62632;BME280;48703;51.248;-0.546;2023-01-26T11:02:21;102461;;;4.49;94.11
62632;BME280;48703;51.248;-0.546;2023-01-26T11:05:22;102463;;;4.51;94.39
62632;BME280;48703;51.248;-0.546;2023-01-26T11:08:32;102461;;;4.52;94.14
62632;BME280;48703;51.248;-0.546;2023-01-26T11:10:36;102462;;;4.51;94.10
62632;BME280;48703;51.248;-0.546;2023-01-26T11:13:27;102459;;;4.52;94.57
62632;BME280;48703;51.248;-0.546;2023-01-26T11:16:29;102459;;;4.52;94.69
62632;BME280;48703;51.248;-0.546;2023-01-26T11:19:51;102461;;;4.52;94.79
62632;BME280;48703;51.248;-0.546;2023-01-26T11:22:35;102457;;;4.55;95.01
62632;BME280;48703;51.248;-0.546;2023-01-26T11:25:37;102459;;;4.57;94.73
62632;BME280;48703;51.248;-0.546;2023-01-26T11:28:40;102455;;;4.58;94.49
62632;BME280;48703;51.248;-0.546;2023-01-26T11:31:41;102455;;;4.61;94.49
62632;BME280;48703;51.248;-0.546;2023-01-26T11:34:43;102454;;;4.67;94.66
62632;BME280;48703;51.248;-0.546;2023-01-26T11:37:42;102455;;;4.73;94.57
62632;BME280;48703;51.248;-0.546;2023-01-26T11:40:46;102448;;;4.76;94.55
62632;BME280;48703;51.248;-0.546;2023-01-26T11:43:50;102441;;;4.79;94.21
62632;BME280;48703;51.248;-0.546;2023-01-26T11:46:54;102435;;;4.86;94.75
62632;BME280;48703;51.248;-0.546;2023-01-26T11:49:56;102437;;;4.93;94.86
62632;BME280;48703;51.248;-0.546;2023-01-26T11:52:56;102440;;;4.98;94.47
62632;BME280;48703;51.248;-0.546;2023-01-26T11:55:57;102443;;;5.03;94.42
62632;BME280;48703;51.248;-0.546;2023-01-26T11:58:57;102439;;;5.10;94.61
62632;BME280;48703;51.248;-0.546;2023-01-26T12:01:58;102439;;;5.17;94.55
62632;BME280;48703;51.248;-0.546;2023-01-26T12:05:00;102443;;;5.20;94.16
62632;BME280;48703;51.248;-0.546;2023-01-26T12:08:02;102444;;;5.23;93.90
62632;BME280;48703;51.248;-0.546;2023-01-26T12:11:04;102436;;;5.26;94.07
62632;BME280;48703;51.248;-0.546;2023-01-26T12:14:10;102429;;;5.31;94.18
62632;BME280;48703;51.248;-0.546;2023-01-26T12:17:14;102424;;;5.34;93.59
62632;BME280;48703;51.248;-0.546;2023-01-26T12:20:18;102425;;;5.37;93.10
62632;BME280;48703;51.248;-0.546;2023-01-26T12:23:12;102428;;;5.38;92.95
62632;BME280;48703;51.248;-0.546;2023-01-26T12:26:13;102425;;;5.39;93.08
62632;BME280;48703;51.248;-0.546;2023-01-26T12:29:16;102421;;;5.40;93.39
62632;BME280;48703;51.248;-0.546;2023-01-26T12:32:16;102424;;;5.40;93.36
62632;BME280;48703;51.248;-0.546;2023-01-26T12:35:21;102423;;;5.41;92.79
62632;BME280;48703;51.248;-0.546;2023-01-26T12:38:21;102420;;;5.41;92.73
62632;BME280;48703;51.248;-0.546;2023-01-26T12:41:24;102420;;;5.42;92.49
62632;BME280;48703;51.248;-0.546;2023-01-26T12:44:26;102420;;;5.44;92.56
62632;BME280;48703;51.248;-0.546;2023-01-26T12:47:27;102422;;;5.45;92.88
62632;BME280;48703;51.248;-0.546;2023-01-26T12:50:28;102421;;;5.47;92.81
62632;BME280;48703;51.248;-0.546;2023-01-26T12:53:31;102420;;;5.53;92.81
62632;BME280;48703;51.248;-0.546;2023-01-26T12:56:32;102420;;;5.58;93.06
62632;BME280;48703;51.248;-0.546;2023-01-26T12:59:34;102418;;;5.63;92.42
62632;BME280;48703;51.248;-0.546;2023-01-26T13:02:35;102417;;;5.69;92.40
62632;BME280;48703;51.248;-0.546;2023-01-26T13:05:40;102409;;;5.74;92.20
62632;BME280;48703;51.248;-0.546;2023-01-26T13:08:47;102409;;;5.76;91.08
62632;BME280;48703;51.248;-0.546;2023-01-26T13:11:42;102412;;;5.77;91.12
62632;BME280;48703;51.248;-0.546;2023-01-26T13:15:17;102407;;;5.79;90.90
62632;BME280;48703;51.248;-0.546;2023-01-26T13:18:47;102409;;;5.83;91.14
62632;BME280;48703;51.248;-0.546;2023-01-26T13:21:47;102410;;;5.85;90.44
62632;BME280;48703;51.248;-0.546;2023-01-26T13:24:49;102412;;;5.87;89.75
62632;BME280;48703;51.248;-0.546;2023-01-26T13:27:54;102409;;;5.90;90.39
62632;BME280;48703;51.248;-0.546;2023-01-26T13:31:01;102406;;;5.93;90.32
62632;BME280;48703;51.248;-0.546;2023-01-26T13:33:07;102406;;;5.95;90.39
62632;BME280;48703;51.248;-0.546;2023-01-26T13:35:56;102407;;;5.98;90.51
62632;BME280;48703;51.248;-0.546;2023-01-26T13:38:58;102409;;;6.03;90.87
62632;BME280;48703;51.248;-0.546;2023-01-26T13:42:00;102411;;;6.04;90.51
62632;BME280;48703;51.248;-0.546;2023-01-26T13:45:03;102410;;;6.04;90.01
62632;BME280;48703;51.248;-0.546;2023-01-26T13:48:06;102406;;;6.05;90.15
62632;BME280;48703;51.248;-0.546;2023-01-26T13:51:06;102399;;;6.05;90.79
62632;BME280;48703;51.248;-0.546;2023-01-26T13:54:09;102399;;;6.05;91.16
62632;BME280;48703;51.248;-0.546;2023-01-26T13:57:10;102394;;;6.06;91.36
62632;BME280;48703;51.248;-0.546;2023-01-26T14:00:12;102390;;;6.06;91.65
62632;BME280;48703;51.248;-0.546;2023-01-26T14:03:20;102388;;;6.06;90.83
62632;BME280;48703;51.248;-0.546;2023-01-26T14:06:15;102382;;;6.07;90.43
62632;BME280;48703;51.248;-0.546;2023-01-26T14:09:17;102382;;;6.08;90.78
62632;BME280;48703;51.248;-0.546;2023-01-26T14:12:19;102386;;;6.10;91.09
62632;BME280;48703;51.248;-0.546;2023-01-26T14:15:22;102383;;;6.14;91.41
62632;BME280;48703;51.248;-0.546;2023-01-26T14:18:23;102384;;;6.22;89.86
62632;BME280;48703;51.248;-0.546;2023-01-26T14:21:24;102382;;;6.26;90.16
62632;BME280;48703;51.248;-0.546;2023-01-26T14:24:30;102382;;;6.29;88.47
62632;BME280;48703;51.248;-0.546;2023-01-26T14:27:31;102384;;;6.33;89.25
62632;BME280;48703;51.248;-0.546;2023-01-26T14:30:31;102392;;;6.35;89.69
62632;BME280;48703;51.248;-0.546;2023-01-26T14:33:32;102389;;;6.37;88.06
62632;BME280;48703;51.248;-0.546;2023-01-26T14:36:34;102391;;;6.39;88.18
62632;BME280;48703;51.248;-0.546;2023-01-26T14:39:36;102394;;;6.42;88.53
62632;BME280;48703;51.248;-0.546;2023-01-26T14:42:38;102394;;;6.44;88.06
62632;BME280;48703;51.248;-0.546;2023-01-26T14:45:41;102391;;;6.44;87.84
62632;BME280;48703;51.248;-0.546;2023-01-26T14:48:42;102389;;;6.46;88.77
62632;BME280;48703;51.248;-0.546;2023-01-26T14:51:43;102388;;;6.47;87.99
62632;BME280;48703;51.248;-0.546;2023-01-26T14:54:45;102390;;;6.47;87.76
62632;BME280;48703;51.248;-0.546;2023-01-26T14:57:47;102389;;;6.47;88.61
62632;BME280;48703;51.248;-0.546;2023-01-26T15:00:49;102389;;;6.45;89.55
62632;BME280;48703;51.248;-0.546;2023-01-26T15:03:55;102399;;;6.42;88.91
62632;BME280;48703;51.248;-0.546;2023-01-26T15:06:53;102400;;;6.42;88.05
62632;BME280;48703;51.248;-0.546;2023-01-26T15:09:55;102405;;;6.41;89.24
62632;BME280;48703;51.248;-0.546;2023-01-26T15:12:57;102411;;;6.38;88.20
62632;BME280;48703;51.248;-0.546;2023-01-26T15:16:01;102406;;;6.37;88.14
62632;BME280;48703;51.248;-0.546;2023-01-26T15:19:01;102407;;;6.37;88.65
62632;BME280;48703;51.248;-0.546;2023-01-26T15:22:02;102409;;;6.36;89.07
62632;BME280;48703;51.248;-0.546;2023-01-26T15:25:15;102408;;;6.34;88.18
62632;BME280;48703;51.248;-0.546;2023-01-26T15:28:11;102403;;;6.34;88.43
62632;BME280;48703;51.248;-0.546;2023-01-26T15:31:08;102402;;;6.33;87.40
62632;BME280;48703;51.248;-0.546;2023-01-26T15:34:27;102402;;;6.34;88.05
62632;BME280;48703;51.248;-0.546;2023-01-26T15:37:28;102403;;;6.34;87.35
62632;BME280;48703;51.248;-0.546;2023-01-26T15:40:14;102403;;;6.35;88.10
62632;BME280;48703;51.248;-0.546;2023-01-26T15:43:16;102402;;;6.34;87.49
62632;BME280;48703;51.248;-0.546;2023-01-26T15:46:17;102409;;;6.33;87.61
62632;BME280;48703;51.248;-0.546;2023-01-26T15:49:19;102410;;;6.32;87.46
62632;BME280;48703;51.248;-0.546;2023-01-26T15:52:22;102410;;;6.31;87.13
62632;BME280;48703;51.248;-0.546;2023-01-26T15:55:24;102411;;;6.31;87.95
62632;BME280;48703;51.248;-0.546;2023-01-26T15:58:25;102412;;;6.30;87.78
62632;BME280;48703;51.248;-0.546;2023-01-26T16:01:27;102415;;;6.27;87.81
62632;BME280;48703;51.248;-0.546;2023-01-26T16:04:29;102412;;;6.25;86.57
62632;BME280;48703;51.248;-0.546;2023-01-26T16:07:31;102416;;;6.24;87.24
62632;BME280;48703;51.248;-0.546;2023-01-26T16:10:33;102415;;;6.23;87.09
62632;BME280;48703;51.248;-0.546;2023-01-26T16:13:35;102417;;;6.22;87.82
62632;BME280;48703;51.248;-0.546;2023-01-26T16:16:37;102419;;;6.20;87.81
62632;BME280;48703;51.248;-0.546;2023-01-26T16:19:38;102422;;;6.18;87.82
62632;BME280;48703;51.248;-0.546;2023-01-26T16:22:40;102421;;;6.16;88.05
62632;BME280;48703;51.248;-0.546;2023-01-26T16:25:42;102422;;;6.11;88.22
62632;BME280;48703;51.248;-0.546;2023-01-26T16:28:44;102429;;;6.07;87.75